Flight Track Log - Related Links

Times and Time Zones

All times are in EDT time to prevent confusion due to time zone crossing. See the DAL180 flight status page for this flight to view local times or setup timezone preferences in your user account.

Time Position Orientation Groundspeed Altitude Reporting Facility
EDT Latitude Longitude Course Direction KTS MPH feet Rate Location/Type
Tue 07:59:46 PM 42.2028 -83.3553 90° East 150 173 1,300  Level Cleveland Center
Tue 08:01:05 PM 42.1367 -83.3433 172° South 216 249 3,900 2,015 Climbing Cleveland Center
Tue 08:02:00 PM 42.2167 -82.9045 90° East  Level FlightAware Approximate
Tue 08:02:00 PM 42.0911 -83.2806 134° Southeast 307 353 5,800  Level Cleveland Center
Tue 08:02:13 PM 42.0908 -83.2750 94° East 270 311 6,000 2,852 Climbing Cleveland Center
Tue 08:03:00 PM 42.2167 -82.7547 90° East  Level FlightAware Approximate
Tue 08:03:01 PM 42.0642 -83.1700 109° East 324 373 8,700  Level Cleveland Center
Tue 08:03:14 PM 42.0669 -83.1439 82° East 315 362 9,100 2,400 Climbing Cleveland Center
Tue 08:04:00 PM 42.2167 -82.6050 90° East  Level FlightAware Approximate
Tue 08:04:16 PM 42.0947 -83.0225 73° East 343 395 11,700  Level Cleveland Center
Tue 08:05:00 PM 42.2167 -82.4552 90° East  Level FlightAware Approximate
Tue 08:05:18 PM 42.1231 -82.8978 73° East 349 402 14,300  Level Cleveland Center
Tue 08:06:20 PM 42.1522 -82.7683 73° East 359 413 16,700 2,129 Climbing Cleveland Center
Tue 08:07:22 PM 42.1839 -82.6300 73° East 386 444 18,700 1,355 Climbing Cleveland Center
Tue 08:08:24 PM 42.2178 -82.4794 73° East 420 483 19,500 1,258 Climbing Cleveland Center
Tue 08:09:26 PM 42.2086 -82.2739 93° East 461 531 21,300 1,887 Climbing Cleveland Center
Tue 08:10:28 PM 42.1308 -82.1433 129° Southeast 440 506 23,400 1,597 Climbing Cleveland Center
Tue 08:11:30 PM 42.0586 -82.0239 129° Southeast 446 513 24,600 1,463 Climbing Cleveland Center
Tue 08:12:31 PM 41.9633 -81.8708 130° Southeast 452 520 26,400 1,366 Climbing Cleveland Center
Tue 08:13:33 PM 41.8800 -81.7386 130° Southeast 456 525 27,400 1,452 Climbing Cleveland Center
Tue 08:14:35 PM 41.7953 -81.6019 130° Southeast 468 539 29,400 1,597 Climbing Cleveland Center
Tue 08:15:37 PM 41.7139 -81.4728 130° Southeast 453 521 30,700 1,258 Climbing Cleveland Center
Tue 08:16:39 PM 41.6317 -81.3433 130° Southeast 452 520 32,000 1,113 Climbing Cleveland Center
Tue 08:17:41 PM 41.5536 -81.2061 127° Southeast 453 521 33,000 878 Climbing Cleveland Center
Tue 08:18:42 PM 41.5069 -81.0411 111° Southeast 469 540 33,800 927 Climbing Cleveland Center
Tue 08:19:44 PM 41.4911 -80.8617 97° East 480 552 34,900 968 Climbing Cleveland Center
Tue 08:20:46 PM 41.4750 -80.6831 97° East 483 556 35,800 823 Climbing Cleveland Center
Tue 08:21:48 PM 41.4575 -80.5036 97° East 482 555 36,600 581 Climbing Cleveland Center
Tue 08:22:50 PM 41.4425 -80.3181 96° East 482 555 37,000 195 Climbing Cleveland Center
Tue 08:23:51 PM 41.4231 -80.1397 98° East 483 556 37,000  Level Cleveland Center
Tue 08:24:53 PM 41.4042 -79.9294 97° East 482 555 37,000  Level Cleveland Center
Tue 08:25:55 PM 41.3872 -79.7547 97° East 481 554 37,000  Level Cleveland Center
Tue 08:26:57 PM 41.3694 -79.5767 98° East 480 552 37,000  Level Cleveland Center
Tue 08:27:59 PM 41.3528 -79.4047 97° East 471 542 37,000  Level Cleveland Center
Tue 08:29:01 PM 41.3342 -79.2367 98° East 472 543 37,000  Level Cleveland Center
Tue 08:30:03 PM 41.3167 -79.0628 98° East 474 545 37,000  Level Cleveland Center
Tue 08:31:04 PM 41.2975 -78.8825 98° East 475 547 37,000 -1,268 Level Cleveland Center
Tue 08:32:06 PM 41.2753 -78.6733 98° East 475 547 34,400 -1,935 Descending Cleveland Center
Tue 08:33:08 PM 41.2569 -78.4969 98° East 482 555 33,000 -677 Descending Cleveland Center
Tue 08:34:10 PM 41.2342 -78.3144 99° East 495 570 33,000  Level Cleveland Center
Tue 08:35:12 PM 41.2144 -78.1394 98° East 491 565 33,000  Level Cleveland Center
Tue 08:36:13 PM 41.1922 -77.9642 100° East 488 562 33,000  Level Cleveland Center
Tue 08:37:15 PM 41.1700 -77.7903 100° East 482 555 33,000  Level Cleveland Center
Tue 08:38:17 PM 41.1372 -77.5825 102° East 482 555 33,000  Level Cleveland Center
Tue 08:39:19 PM 41.1108 -77.4108 101° East 480 552 33,000 -339 Level Cleveland Center
Tue 08:40:21 PM 41.0836 -77.2389 102° East 480 552 32,300 -823 Descending Cleveland Center
Tue 08:41:23 PM 41.0558 -77.0672 102° East 480 552 31,300 -1,220 Descending Cleveland Center
Tue 08:42:24 PM 41.0286 -76.8956 102° East 480 552 29,800 -2,195 Descending Cleveland Center
Tue 08:43:26 PM 41.0008 -76.7269 102° East 477 549 26,800 -2,857 Descending Cleveland Center
Tue 08:44:30 PM 40.9669 -76.5336 103° East 471 542 23,800 -2,571 Descending New York Center
Tue 08:45:32 PM 40.9392 -76.3719 103° East 460 529 21,400 -2,380 Descending New York Center
Tue 08:46:31 PM 40.9186 -76.2358 101° East 434 499 19,000 -2,328 Descending New York Center
Tue 08:47:28 PM 40.8800 -76.0733 107° East 416 479 16,900 -1,866 Descending New York Center
Tue 08:48:30 PM 40.8469 -75.9308 107° East 410 472 15,300 -1,574 Descending New York Center
Tue 08:49:30 PM 40.8147 -75.8053 109° East 405 466 13,700 -1,160 Descending New York Center
Tue 08:50:29 PM 40.7772 -75.6544 108° East 393 452 13,000 -353 Descending New York Center
Tue 08:51:29 PM 40.7447 -75.5317 109° East 365 420 13,000  Level New York Center
Tue 08:52:28 PM 40.7075 -75.4222 114° Southeast 360 414 13,000 -101 Level New York Center
Tue 08:53:28 PM 40.6664 -75.3017 114° Southeast 360 414 12,800 -900 Descending New York Center
Tue 08:54:28 PM 40.6233 -75.1703 113° Southeast 360 414 11,200 -1,240 Descending New York Center
Tue 08:55:29 PM 40.5858 -75.0586 114° Southeast 349 402 10,300 -600 Descending New York Center
Tue 08:56:28 PM 40.5522 -74.9500 112° Southeast 344 396 10,000 -150 Descending New York Center
Tue 08:57:29 PM 40.5150 -74.8222 111° Southeast 344 396 10,000 -197 Level New York Center
Tue 08:58:30 PM 40.4772 -74.7081 113° Southeast 338 389 9,600 -513 Descending New York Center
Tue 08:59:26 PM 40.4500 -74.6000 108° East 306 352 9,000 -259 Descending New York TRACON
Tue 09:00:26 PM 40.4333 -74.5000 102° East 307 353 9,100 -261 Climbing New York TRACON
Tue 09:01:21 PM 40.4667 -74.4000 66° East 300 345 8,500 -1,043 Descending New York TRACON
Tue 09:02:21 PM 40.5000 -74.3000 66° East 290 334 7,100 -706 Descending New York TRACON
Tue 09:03:20 PM 40.5167 -74.2000 78° East 290 334 7,100 -737 Level New York TRACON
Tue 09:04:15 PM 40.5500 -74.1167 62° Northeast 288 331 5,700 -1,488 Descending New York TRACON
Tue 09:05:21 PM 40.6167 -74.0500 37° Northeast 287 330 4,100 -762 Descending New York TRACON
Tue 09:06:21 PM 40.7000 -74.0167 17° North 289 333 4,100  Level New York TRACON
Tue 09:07:20 PM 40.7667 -74.0000 11° North 292 336 4,100 -250 Level New York TRACON
Tue 09:08:21 PM 40.8500 -73.9500 24° Northeast 288 331 3,600 -520 Descending New York TRACON
Tue 09:09:27 PM 40.9000 -73.8833 45° Northeast 275 316 3,000 -667 Descending New York TRACON
Tue 09:10:27 PM 40.8833 -73.8167 108° East 226 260 2,200 -750 Descending New York TRACON
Tue 09:11:27 PM 40.8500 -73.8167 180° South 137 158 1,500 -700 Descending New York TRACON
Tue 09:12:27 PM 40.8167 -73.8500 217° Southwest 131 151 800 -700 Descending New York TRACON

Login

Don't have an account? Register now (free) for customized features, flight alerts, and more!